Logan Station, North Carolina
Current Conditions -  °F | °C
As of 11:55 AM on Saturday 25 Oct 2014 (Local Time) from KFQD Reporting Station
Clear Clear  
Wind Chill: 66°   Ceiling: Unl
Heat Index: 66°   Visibility: 10mi
Dew Point: 38°   Wind: 0mph
Humidity: 36%   Direction: NA
Pressure: 30.05"   Gusts: NA
Location:  35.3722°N, 82.0134°W
Report Text: KFQD 251555Z AUTO 00000KT 10SM CLR 19/03 A3005 RMK AO2 T01870033
Loading
Personal Weather Stations






























Interactive Weather Map
Tropical Storm Tracking
New forecast layout! Learn more

10-Day Weather Forecast

Advertisements
Track Severe Weather on mobile